sensor_id;sensor_type;location;lat;lon;timestamp;pressure;altitude;pressure_sealevel;temperature;humidity
32298;BME280;18782;48.984;8.548;2022-11-20T00:01:19;99525.22;;;5.57;100.00
32298;BME280;18782;48.984;8.548;2022-11-20T00:03:47;99531.38;;;5.62;100.00
32298;BME280;18782;48.984;8.548;2022-11-20T00:06:16;99524.59;;;5.62;100.00
32298;BME280;18782;48.984;8.548;2022-11-20T00:08:45;99528.09;;;5.64;100.00
32298;BME280;18782;48.984;8.548;2022-11-20T00:11:14;99536.50;;;5.62;100.00
32298;BME280;18782;48.984;8.548;2022-11-20T00:13:42;99535.66;;;5.63;100.00
32298;BME280;18782;48.984;8.548;2022-11-20T00:16:11;99534.88;;;5.64;100.00
32298;BME280;18782;48.984;8.548;2022-11-20T00:18:41;99534.94;;;5.65;100.00
32298;BME280;18782;48.984;8.548;2022-11-20T00:21:12;99535.81;;;5.66;100.00
32298;BME280;18782;48.984;8.548;2022-11-20T00:23:40;99539.16;;;5.65;100.00
32298;BME280;18782;48.984;8.548;2022-11-20T00:26:10;99537.53;;;5.67;100.00
32298;BME280;18782;48.984;8.548;2022-11-20T00:28:39;99540.84;;;5.64;100.00
32298;BME280;18782;48.984;8.548;2022-11-20T00:31:08;99535.56;;;5.60;100.00
32298;BME280;18782;48.984;8.548;2022-11-20T00:33:37;99533.94;;;5.62;100.00
32298;BME280;18782;48.984;8.548;2022-11-20T00:36:08;99528.13;;;5.66;100.00
32298;BME280;18782;48.984;8.548;2022-11-20T00:38:37;99527.28;;;5.65;100.00
32298;BME280;18782;48.984;8.548;2022-11-20T00:41:07;99527.44;;;5.70;100.00
32298;BME280;18782;48.984;8.548;2022-11-20T00:43:35;99533.59;;;5.75;100.00
32298;BME280;18782;48.984;8.548;2022-11-20T00:46:05;99531.03;;;5.75;100.00
32298;BME280;18782;48.984;8.548;2022-11-20T00:48:33;99546.47;;;5.78;100.00
32298;BME280;18782;48.984;8.548;2022-11-20T00:51:01;99539.75;;;5.80;100.00
32298;BME280;18782;48.984;8.548;2022-11-20T00:53:30;99533.00;;;5.82;100.00
32298;BME280;18782;48.984;8.548;2022-11-20T00:56:00;99535.72;;;5.87;100.00
32298;BME280;18782;48.984;8.548;2022-11-20T00:58:30;99535.72;;;5.87;100.00
32298;BME280;18782;48.984;8.548;2022-11-20T01:01:01;99539.19;;;5.89;100.00
32298;BME280;18782;48.984;8.548;2022-11-20T01:03:31;99534.94;;;5.89;100.00
32298;BME280;18782;48.984;8.548;2022-11-20T01:06:00;99528.25;;;5.91;100.00
32298;BME280;18782;48.984;8.548;2022-11-20T01:08:35;99536.97;;;5.96;100.00
32298;BME280;18782;48.984;8.548;2022-11-20T01:11:05;99538.69;;;5.97;100.00
32298;BME280;18782;48.984;8.548;2022-11-20T01:13:33;99530.97;;;5.96;100.00
32298;BME280;18782;48.984;8.548;2022-11-20T01:16:05;99535.31;;;5.98;100.00
32298;BME280;18782;48.984;8.548;2022-11-20T01:18:34;99529.38;;;5.99;100.00
32298;BME280;18782;48.984;8.548;2022-11-20T01:21:04;99528.59;;;6.00;100.00
32298;BME280;18782;48.984;8.548;2022-11-20T01:23:35;99530.22;;;5.98;100.00
32298;BME280;18782;48.984;8.548;2022-11-20T01:26:05;99539.72;;;6.03;100.00
32298;BME280;18782;48.984;8.548;2022-11-20T01:28:33;99538.22;;;6.08;100.00
32298;BME280;18782;48.984;8.548;2022-11-20T01:31:02;99532.19;;;6.06;100.00
32298;BME280;18782;48.984;8.548;2022-11-20T01:33:39;99539.03;;;6.07;100.00
32298;BME280;18782;48.984;8.548;2022-11-20T01:36:07;99534.88;;;6.10;100.00
32298;BME280;18782;48.984;8.548;2022-11-20T01:38:37;99537.72;;;6.18;100.00
32298;BME280;18782;48.984;8.548;2022-11-20T01:41:05;99537.94;;;6.24;100.00
32298;BME280;18782;48.984;8.548;2022-11-20T01:43:33;99532.94;;;6.27;100.00
32298;BME280;18782;48.984;8.548;2022-11-20T01:46:03;99529.00;;;6.37;100.00
32298;BME280;18782;48.984;8.548;2022-11-20T01:48:36;99535.09;;;6.40;100.00
32298;BME280;18782;48.984;8.548;2022-11-20T01:51:13;99526.72;;;6.44;100.00
32298;BME280;18782;48.984;8.548;2022-11-20T01:53:46;99527.69;;;6.48;100.00
32298;BME280;18782;48.984;8.548;2022-11-20T01:56:14;99528.56;;;6.48;100.00
32298;BME280;18782;48.984;8.548;2022-11-20T01:58:45;99525.38;;;6.56;100.00
32298;BME280;18782;48.984;8.548;2022-11-20T02:01:15;99528.09;;;6.60;100.00
32298;BME280;18782;48.984;8.548;2022-11-20T02:03:43;99524.84;;;6.64;100.00
32298;BME280;18782;48.984;8.548;2022-11-20T02:06:16;99526.59;;;6.67;100.00
32298;BME280;18782;48.984;8.548;2022-11-20T02:08:48;99513.16;;;6.72;100.00
32298;BME280;18782;48.984;8.548;2022-11-20T02:11:15;99521.75;;;6.74;100.00
32298;BME280;18782;48.984;8.548;2022-11-20T02:13:43;99515.97;;;6.80;100.00
32298;BME280;18782;48.984;8.548;2022-11-20T02:16:14;99517.91;;;6.87;100.00
32298;BME280;18782;48.984;8.548;2022-11-20T02:18:43;99525.59;;;6.89;100.00
32298;BME280;18782;48.984;8.548;2022-11-20T02:21:21;99524.84;;;6.91;98.98
32298;BME280;18782;48.984;8.548;2022-11-20T02:24:06;99522.41;;;6.94;99.42
32298;BME280;18782;48.984;8.548;2022-11-20T02:26:39;99521.78;;;7.01;97.89
32298;BME280;18782;48.984;8.548;2022-11-20T02:29:08;99521.06;;;7.05;97.21
32298;BME280;18782;48.984;8.548;2022-11-20T02:31:38;99523.75;;;7.10;97.11
32298;BME280;18782;48.984;8.548;2022-11-20T02:34:07;99525.53;;;7.13;96.87
32298;BME280;18782;48.984;8.548;2022-11-20T02:36:36;99519.66;;;7.15;97.16
32298;BME280;18782;48.984;8.548;2022-11-20T02:39:08;99518.88;;;7.18;96.44
32298;BME280;18782;48.984;8.548;2022-11-20T02:41:37;99524.28;;;7.27;96.25
32298;BME280;18782;48.984;8.548;2022-11-20T02:44:05;99518.19;;;7.23;95.58
32298;BME280;18782;48.984;8.548;2022-11-20T02:46:33;99514.94;;;7.29;96.22
32298;BME280;18782;48.984;8.548;2022-11-20T02:49:02;99523.41;;;7.26;95.00
32298;BME280;18782;48.984;8.548;2022-11-20T02:51:30;99524.28;;;7.27;95.29
32298;BME280;18782;48.984;8.548;2022-11-20T02:53:57;99514.88;;;7.26;94.86
32298;BME280;18782;48.984;8.548;2022-11-20T02:56:26;99511.50;;;7.28;95.54
32298;BME280;18782;48.984;8.548;2022-11-20T02:58:54;99511.41;;;7.25;94.94
32298;BME280;18782;48.984;8.548;2022-11-20T03:01:22;99511.47;;;7.27;94.62
32298;BME280;18782;48.984;8.548;2022-11-20T03:03:52;99512.38;;;7.29;94.90
32298;BME280;18782;48.984;8.548;2022-11-20T03:06:21;99519.22;;;7.30;95.24
32298;BME280;18782;48.984;8.548;2022-11-20T03:08:48;99513.25;;;7.29;95.02
32298;BME280;18782;48.984;8.548;2022-11-20T03:11:16;99507.09;;;7.23;94.75
32298;BME280;18782;48.984;8.548;2022-11-20T03:13:45;99513.97;;;7.25;94.76
32298;BME280;18782;48.984;8.548;2022-11-20T03:16:15;99513.84;;;7.21;94.03
32298;BME280;18782;48.984;8.548;2022-11-20T03:18:43;99511.22;;;7.19;94.13
32298;BME280;18782;48.984;8.548;2022-11-20T03:21:12;99504.38;;;7.18;94.52
32298;BME280;18782;48.984;8.548;2022-11-20T03:23:40;99514.72;;;7.21;93.82
32298;BME280;18782;48.984;8.548;2022-11-20T03:26:10;99510.34;;;7.19;93.97
32298;BME280;18782;48.984;8.548;2022-11-20T03:28:38;99505.34;;;7.22;94.21
32298;BME280;18782;48.984;8.548;2022-11-20T03:31:10;99513.94;;;7.24;95.12
32298;BME280;18782;48.984;8.548;2022-11-20T03:33:38;99512.31;;;7.26;94.86
32298;BME280;18782;48.984;8.548;2022-11-20T03:36:08;99507.38;;;7.32;92.70
32298;BME280;18782;48.984;8.548;2022-11-20T03:38:37;99498.84;;;7.33;92.64
32298;BME280;18782;48.984;8.548;2022-11-20T03:41:07;99509.09;;;7.33;92.29
32298;BME280;18782;48.984;8.548;2022-11-20T03:43:36;99507.19;;;7.26;92.01
32298;BME280;18782;48.984;8.548;2022-11-20T03:46:04;99514.03;;;7.27;92.47
32298;BME280;18782;48.984;8.548;2022-11-20T03:48:34;99500.41;;;7.28;92.51
32298;BME280;18782;48.984;8.548;2022-11-20T03:51:09;99507.25;;;7.29;93.21
32298;BME280;18782;48.984;8.548;2022-11-20T03:53:37;99502.13;;;7.29;93.64
32298;BME280;18782;48.984;8.548;2022-11-20T03:56:06;99506.56;;;7.35;93.42
32298;BME280;18782;48.984;8.548;2022-11-20T03:58:34;99508.28;;;7.34;91.61
32298;BME280;18782;48.984;8.548;2022-11-20T04:01:06;99512.56;;;7.35;91.06
32298;BME280;18782;48.984;8.548;2022-11-20T04:03:37;99508.38;;;7.37;91.68
32298;BME280;18782;48.984;8.548;2022-11-20T04:06:07;99503.97;;;7.33;92.00
32298;BME280;18782;48.984;8.548;2022-11-20T04:08:35;99497.28;;;7.37;91.33
32298;BME280;18782;48.984;8.548;2022-11-20T04:11:10;99499.03;;;7.39;91.07
32298;BME280;18782;48.984;8.548;2022-11-20T04:13:38;99494.78;;;7.40;91.02
32298;BME280;18782;48.984;8.548;2022-11-20T04:16:07;99505.06;;;7.41;91.28
32298;BME280;18782;48.984;8.548;2022-11-20T04:18:37;99503.41;;;7.42;91.80
32298;BME280;18782;48.984;8.548;2022-11-20T04:21:05;99499.03;;;7.39;91.53
32298;BME280;18782;48.984;8.548;2022-11-20T04:23:33;99494.97;;;7.46;91.00
32298;BME280;18782;48.984;8.548;2022-11-20T04:26:02;99494.09;;;7.45;91.49
32298;BME280;18782;48.984;8.548;2022-11-20T04:28:30;99499.22;;;7.45;91.28
32298;BME280;18782;48.984;8.548;2022-11-20T04:31:02;99502.88;;;7.53;90.94
32298;BME280;18782;48.984;8.548;2022-11-20T04:33:30;99497.47;;;7.44;90.45
32298;BME280;18782;48.984;8.548;2022-11-20T04:36:02;99499.31;;;7.48;89.83
32298;BME280;18782;48.984;8.548;2022-11-20T04:38:30;99494.06;;;7.44;90.30
32298;BME280;18782;48.984;8.548;2022-11-20T04:40:58;99500.88;;;7.43;90.31
32298;BME280;18782;48.984;8.548;2022-11-20T04:43:26;99492.25;;;7.41;90.94
32298;BME280;18782;48.984;8.548;2022-11-20T04:45:54;99496.56;;;7.42;89.83
32298;BME280;18782;48.984;8.548;2022-11-20T04:48:23;99488.06;;;7.43;90.32
32298;BME280;18782;48.984;8.548;2022-11-20T04:50:51;99494.03;;;7.42;90.47
32298;BME280;18782;48.984;8.548;2022-11-20T04:53:21;99494.03;;;7.42;90.43
32298;BME280;18782;48.984;8.548;2022-11-20T04:55:49;99487.06;;;7.38;90.61
32298;BME280;18782;48.984;8.548;2022-11-20T04:58:16;99499.22;;;7.45;89.76
32298;BME280;18782;48.984;8.548;2022-11-20T05:00:44;99488.13;;;7.46;89.78
32298;BME280;18782;48.984;8.548;2022-11-20T05:03:12;99486.50;;;7.48;90.12
32298;BME280;18782;48.984;8.548;2022-11-20T05:05:39;99488.97;;;7.45;89.95
32298;BME280;18782;48.984;8.548;2022-11-20T05:08:07;99485.56;;;7.46;89.32
32298;BME280;18782;48.984;8.548;2022-11-20T05:10:36;99485.56;;;7.46;89.29
32298;BME280;18782;48.984;8.548;2022-11-20T05:13:03;99485.84;;;7.55;89.13
32298;BME280;18782;48.984;8.548;2022-11-20T05:15:32;99478.03;;;7.51;88.88
32298;BME280;18782;48.984;8.548;2022-11-20T05:17:59;99483.22;;;7.52;89.16
32298;BME280;18782;48.984;8.548;2022-11-20T05:20:27;99475.53;;;7.52;89.32
32298;BME280;18782;48.984;8.548;2022-11-20T05:22:56;99476.31;;;7.50;89.31
32298;BME280;18782;48.984;8.548;2022-11-20T05:25:24;99477.28;;;7.53;89.67
32298;BME280;18782;48.984;8.548;2022-11-20T05:27:54;99482.38;;;7.53;89.42
32298;BME280;18782;48.984;8.548;2022-11-20T05:30:21;99476.41;;;7.53;88.60
32298;BME280;18782;48.984;8.548;2022-11-20T05:32:49;99480.84;;;7.58;88.42
32298;BME280;18782;48.984;8.548;2022-11-20T05:35:16;99484.22;;;7.57;88.12
32298;BME280;18782;48.984;8.548;2022-11-20T05:37:44;99482.34;;;7.52;88.61
32298;BME280;18782;48.984;8.548;2022-11-20T05:40:12;99479.16;;;7.61;88.08
32298;BME280;18782;48.984;8.548;2022-11-20T05:42:40;99483.53;;;7.63;88.25
32298;BME280;18782;48.984;8.548;2022-11-20T05:45:11;99475.88;;;7.65;88.46
32298;BME280;18782;48.984;8.548;2022-11-20T05:47:39;99475.97;;;7.68;88.28
32298;BME280;18782;48.984;8.548;2022-11-20T05:50:07;99463.84;;;7.62;87.68
32298;BME280;18782;48.984;8.548;2022-11-20T05:52:34;99457.91;;;7.63;87.79
32298;BME280;18782;48.984;8.548;2022-11-20T05:55:02;99470.75;;;7.65;87.76
32298;BME280;18782;48.984;8.548;2022-11-20T05:57:30;99469.19;;;7.70;87.58
32298;BME280;18782;48.984;8.548;2022-11-20T05:59:58;99465.81;;;7.71;86.12
32298;BME280;18782;48.984;8.548;2022-11-20T06:02:27;99470.94;;;7.71;86.41
32298;BME280;18782;48.984;8.548;2022-11-20T06:04:55;99476.06;;;7.71;86.32
32298;BME280;18782;48.984;8.548;2022-11-20T06:07:22;99473.47;;;7.71;86.45
32298;BME280;18782;48.984;8.548;2022-11-20T06:09:50;99475.19;;;7.70;85.95
32298;BME280;18782;48.984;8.548;2022-11-20T06:12:18;99473.41;;;7.68;86.20
32298;BME280;18782;48.984;8.548;2022-11-20T06:14:45;99482.91;;;7.72;86.06
32298;BME280;18782;48.984;8.548;2022-11-20T06:17:13;99482.16;;;7.76;86.07
32298;BME280;18782;48.984;8.548;2022-11-20T06:19:42;99479.53;;;7.73;86.12
32298;BME280;18782;48.984;8.548;2022-11-20T06:22:10;99475.28;;;7.73;86.14
32298;BME280;18782;48.984;8.548;2022-11-20T06:24:37;99472.06;;;7.80;85.83
32298;BME280;18782;48.984;8.548;2022-11-20T06:27:05;99472.75;;;7.75;85.26
32298;BME280;18782;48.984;8.548;2022-11-20T06:29:32;99482.09;;;7.73;86.20
32298;BME280;18782;48.984;8.548;2022-11-20T06:32:01;99483.00;;;7.75;85.93
32298;BME280;18782;48.984;8.548;2022-11-20T06:34:28;99476.16;;;7.74;85.82
32298;BME280;18782;48.984;8.548;2022-11-20T06:36:57;99480.44;;;7.75;85.55
32298;BME280;18782;48.984;8.548;2022-11-20T06:39:25;99483.84;;;7.74;86.62
32298;BME280;18782;48.984;8.548;2022-11-20T06:41:52;99477.00;;;7.74;86.88
32298;BME280;18782;48.984;8.548;2022-11-20T06:44:24;99482.84;;;7.69;86.63
32298;BME280;18782;48.984;8.548;2022-11-20T06:46:52;99479.59;;;7.76;86.45
32298;BME280;18782;48.984;8.548;2022-11-20T06:49:20;99481.97;;;7.68;86.86
32298;BME280;18782;48.984;8.548;2022-11-20T06:51:48;99497.47;;;7.73;86.86
32298;BME280;18782;48.984;8.548;2022-11-20T06:54:17;99482.91;;;7.72;86.08
32298;BME280;18782;48.984;8.548;2022-11-20T06:56:46;99486.41;;;7.74;86.34
32298;BME280;18782;48.984;8.548;2022-11-20T06:59:14;99489.84;;;7.76;87.00
32298;BME280;18782;48.984;8.548;2022-11-20T07:01:42;99500.25;;;7.80;86.80
32298;BME280;18782;48.984;8.548;2022-11-20T07:04:09;99493.34;;;7.78;86.34
32298;BME280;18782;48.984;8.548;2022-11-20T07:06:37;99495.13;;;7.80;86.84
32298;BME280;18782;48.984;8.548;2022-11-20T07:09:05;99501.25;;;7.85;87.34
32298;BME280;18782;48.984;8.548;2022-11-20T07:11:39;99495.16;;;7.82;86.07
32298;BME280;18782;48.984;8.548;2022-11-20T07:14:07;99509.72;;;7.83;86.69
32298;BME280;18782;48.984;8.548;2022-11-20T07:16:34;99510.47;;;7.79;86.31
32298;BME280;18782;48.984;8.548;2022-11-20T07:19:02;99515.66;;;7.82;86.96
32298;BME280;18782;48.984;8.548;2022-11-20T07:21:29;99507.16;;;7.83;87.29
32298;BME280;18782;48.984;8.548;2022-11-20T07:23:57;99520.59;;;7.76;87.17
32298;BME280;18782;48.984;8.548;2022-11-20T07:26:25;99519.03;;;7.81;86.93
32298;BME280;18782;48.984;8.548;2022-11-20T07:28:54;99508.78;;;7.81;87.17
32298;BME280;18782;48.984;8.548;2022-11-20T07:31:21;99516.41;;;7.78;87.82
32298;BME280;18782;48.984;8.548;2022-11-20T07:33:49;99518.88;;;7.75;88.98
32298;BME280;18782;48.984;8.548;2022-11-20T07:36:17;99522.09;;;7.68;89.86
32298;BME280;18782;48.984;8.548;2022-11-20T07:38:44;99510.28;;;7.73;90.84
32298;BME280;18782;48.984;8.548;2022-11-20T07:41:12;99518.59;;;7.66;91.27
32298;BME280;18782;48.984;8.548;2022-11-20T07:43:40;99517.78;;;7.67;91.61
32298;BME280;18782;48.984;8.548;2022-11-20T07:46:09;99523.72;;;7.66;91.24
32298;BME280;18782;48.984;8.548;2022-11-20T07:48:36;99525.56;;;7.70;90.56
32298;BME280;18782;48.984;8.548;2022-11-20T07:51:04;99520.53;;;7.73;90.08
32298;BME280;18782;48.984;8.548;2022-11-20T07:53:32;99518.78;;;7.72;90.68
32298;BME280;18782;48.984;8.548;2022-11-20T07:55:59;99528.94;;;7.69;91.13
32298;BME280;18782;48.984;8.548;2022-11-20T07:58:28;99523.88;;;7.72;91.02
32298;BME280;18782;48.984;8.548;2022-11-20T08:00:56;99527.28;;;7.71;90.66
32298;BME280;18782;48.984;8.548;2022-11-20T08:03:25;99529.13;;;7.75;91.22
32298;BME280;18782;48.984;8.548;2022-11-20T08:05:53;99531.78;;;7.78;90.99
32298;BME280;18782;48.984;8.548;2022-11-20T08:08:20;99540.19;;;7.74;91.04
32298;BME280;18782;48.984;8.548;2022-11-20T08:10:49;99539.53;;;7.81;91.33
32298;BME280;18782;48.984;8.548;2022-11-20T08:13:16;99531.03;;;7.82;92.25
32298;BME280;18782;48.984;8.548;2022-11-20T08:16:02;99543.59;;;7.73;91.99
32298;BME280;18782;48.984;8.548;2022-11-20T08:18:31;99538.41;;;7.71;92.57
32298;BME280;18782;48.984;8.548;2022-11-20T08:21:02;99530.84;;;7.76;92.05
32298;BME280;18782;48.984;8.548;2022-11-20T08:23:30;99542.81;;;7.77;92.05
32298;BME280;18782;48.984;8.548;2022-11-20T08:25:58;99553.06;;;7.77;91.66
32298;BME280;18782;48.984;8.548;2022-11-20T08:28:26;99556.47;;;7.76;91.88
32298;BME280;18782;48.984;8.548;2022-11-20T08:30:58;99552.34;;;7.81;91.94
32298;BME280;18782;48.984;8.548;2022-11-20T08:33:25;99553.34;;;7.86;91.77
32298;BME280;18782;48.984;8.548;2022-11-20T08:35:58;99570.53;;;7.89;92.04
32298;BME280;18782;48.984;8.548;2022-11-20T08:38:26;99562.63;;;7.82;91.79
32298;BME280;18782;48.984;8.548;2022-11-20T08:40:56;99574.59;;;7.82;92.44
32298;BME280;18782;48.984;8.548;2022-11-20T08:43:42;99555.88;;;7.84;92.51
32298;BME280;18782;48.984;8.548;2022-11-20T08:46:09;99561.78;;;7.82;91.84
32298;BME280;18782;48.984;8.548;2022-11-20T08:48:37;99568.56;;;7.80;92.43
32298;BME280;18782;48.984;8.548;2022-11-20T08:51:06;99573.19;;;7.93;91.86
32298;BME280;18782;48.984;8.548;2022-11-20T08:53:34;99586.44;;;7.78;91.89
32298;BME280;18782;48.984;8.548;2022-11-20T08:56:01;99566.91;;;7.82;92.57
32298;BME280;18782;48.984;8.548;2022-11-20T08:58:29;99580.72;;;7.87;91.76
32298;BME280;18782;48.984;8.548;2022-11-20T09:01:17;99591.06;;;7.90;92.04
32298;BME280;18782;48.984;8.548;2022-11-20T09:03:45;99586.84;;;7.92;91.90
32298;BME280;18782;48.984;8.548;2022-11-20T09:06:14;99581.78;;;7.94;92.14
32298;BME280;18782;48.984;8.548;2022-11-20T09:08:42;99585.94;;;7.90;91.61
32298;BME280;18782;48.984;8.548;2022-11-20T09:11:10;99592.03;;;7.94;91.95
32298;BME280;18782;48.984;8.548;2022-11-20T09:13:37;99586.94;;;7.95;92.21
32298;BME280;18782;48.984;8.548;2022-11-20T09:16:07;99586.78;;;7.89;92.03
32298;BME280;18782;48.984;8.548;2022-11-20T09:18:37;99604.38;;;8.07;92.49
32298;BME280;18782;48.984;8.548;2022-11-20T09:21:06;99591.84;;;8.18;93.80
32298;BME280;18782;48.984;8.548;2022-11-20T09:23:36;99598.25;;;8.03;92.69
32298;BME280;18782;48.984;8.548;2022-11-20T09:26:04;99597.19;;;7.95;92.60
32298;BME280;18782;48.984;8.548;2022-11-20T09:28:32;99593.53;;;7.87;93.13
32298;BME280;18782;48.984;8.548;2022-11-20T09:31:00;99609.72;;;7.86;93.69
32298;BME280;18782;48.984;8.548;2022-11-20T09:33:28;99592.53;;;7.82;93.17
32298;BME280;18782;48.984;8.548;2022-11-20T09:35:55;99620.88;;;7.88;93.02
32298;BME280;18782;48.984;8.548;2022-11-20T09:38:23;99608.75;;;7.82;93.69
32298;BME280;18782;48.984;8.548;2022-11-20T09:40:56;99590.78;;;7.81;93.90
32298;BME280;18782;48.984;8.548;2022-11-20T09:43:31;99596.19;;;7.90;93.54
32298;BME280;18782;48.984;8.548;2022-11-20T09:46:09;99597.75;;;7.85;94.42
32298;BME280;18782;48.984;8.548;2022-11-20T09:49:07;99610.63;;;7.88;92.92
32298;BME280;18782;48.984;8.548;2022-11-20T09:51:46;99610.38;;;7.79;94.57
32298;BME280;18782;48.984;8.548;2022-11-20T09:54:20;99616.22;;;7.75;95.73
32298;BME280;18782;48.984;8.548;2022-11-20T09:56:53;99613.56;;;7.72;96.03
32298;BME280;18782;48.984;8.548;2022-11-20T09:59:30;99612.56;;;7.67;97.20
32298;BME280;18782;48.984;8.548;2022-11-20T10:02:00;99615.03;;;7.64;97.15
32298;BME280;18782;48.984;8.548;2022-11-20T10:04:31;99618.50;;;7.66;97.14
32298;BME280;18782;48.984;8.548;2022-11-20T10:07:11;99619.44;;;7.68;97.47
32298;BME280;18782;48.984;8.548;2022-11-20T10:09:59;99632.25;;;7.68;97.40
32298;BME280;18782;48.984;8.548;2022-11-20T10:12:35;99624.75;;;7.74;96.50
32298;BME280;18782;48.984;8.548;2022-11-20T10:15:18;99609.56;;;7.80;97.44
32298;BME280;18782;48.984;8.548;2022-11-20T10:18:09;99617.38;;;7.84;97.36
32298;BME280;18782;48.984;8.548;2022-11-20T10:20:44;99616.59;;;7.87;96.62
32298;BME280;18782;48.984;8.548;2022-11-20T10:23:29;99607.53;;;7.70;97.68
32298;BME280;18782;48.984;8.548;2022-11-20T10:26:02;99609.19;;;7.68;97.64
32298;BME280;18782;48.984;8.548;2022-11-20T10:28:42;99604.06;;;7.68;98.02
32298;BME280;18782;48.984;8.548;2022-11-20T10:31:28;99596.91;;;7.86;97.09
32298;BME280;18782;48.984;8.548;2022-11-20T10:34:00;99595.63;;;8.00;96.50
32298;BME280;18782;48.984;8.548;2022-11-20T10:36:42;99596.97;;;8.18;96.30
32298;BME280;18782;48.984;8.548;2022-11-20T10:39:18;99580.34;;;8.35;94.22
32298;BME280;18782;48.984;8.548;2022-11-20T10:41:52;99585.94;;;8.50;93.86
32298;BME280;18782;48.984;8.548;2022-11-20T10:44:24;99596.13;;;8.47;94.37
32298;BME280;18782;48.984;8.548;2022-11-20T10:47:13;99593.31;;;8.70;94.17
32298;BME280;18782;48.984;8.548;2022-11-20T10:49:42;99594.06;;;8.99;91.25
32298;BME280;18782;48.984;8.548;2022-11-20T10:52:16;99588.13;;;9.37;90.24
32298;BME280;18782;48.984;8.548;2022-11-20T10:54:52;99582.38;;;9.48;87.49
32298;BME280;18782;48.984;8.548;2022-11-20T10:57:31;99579.41;;;9.67;86.04
32298;BME280;18782;48.984;8.548;2022-11-20T11:00:06;99568.09;;;10.00;82.85
32298;BME280;18782;48.984;8.548;2022-11-20T11:02:38;99570.69;;;10.01;83.26
32298;BME280;18782;48.984;8.548;2022-11-20T11:05:15;99566.78;;;9.78;83.55
32298;BME280;18782;48.984;8.548;2022-11-20T11:07:45;99553.53;;;10.00;83.02
32298;BME280;18782;48.984;8.548;2022-11-20T11:10:16;99561.78;;;10.25;80.64
32298;BME280;18782;48.984;8.548;2022-11-20T11:12:46;99564.88;;;10.52;80.97
32298;BME280;18782;48.984;8.548;2022-11-20T11:15:27;99549.97;;;10.83;78.11
32298;BME280;18782;48.984;8.548;2022-11-20T11:17:56;99547.38;;;10.83;78.04
32298;BME280;18782;48.984;8.548;2022-11-20T11:20:25;99548.75;;;10.64;78.19
32298;BME280;18782;48.984;8.548;2022-11-20T11:22:55;99541.13;;;10.67;76.98
32298;BME280;18782;48.984;8.548;2022-11-20T11:25:28;99544.38;;;10.58;77.70
32298;BME280;18782;48.984;8.548;2022-11-20T11:28:00;99554.50;;;10.49;79.04
32298;BME280;18782;48.984;8.548;2022-11-20T11:30:40;99533.38;;;10.22;79.28
32298;BME280;18782;48.984;8.548;2022-11-20T11:33:10;99534.88;;;10.54;79.01
32298;BME280;18782;48.984;8.548;2022-11-20T11:35:45;99527.28;;;10.60;79.00
32298;BME280;18782;48.984;8.548;2022-11-20T11:38:20;99520.50;;;10.65;77.94
32298;BME280;18782;48.984;8.548;2022-11-20T11:40:48;99512.47;;;11.00;75.57
32298;BME280;18782;48.984;8.548;2022-11-20T11:43:19;99508.56;;;11.27;76.12
32298;BME280;18782;48.984;8.548;2022-11-20T11:46:22;99509.66;;;11.41;72.26
32298;BME280;18782;48.984;8.548;2022-11-20T11:48:55;99508.72;;;11.34;72.87
32298;BME280;18782;48.984;8.548;2022-11-20T11:53:57;99505.84;;;11.76;71.67
32298;BME280;18782;48.984;8.548;2022-11-20T11:56:26;99502.00;;;12.12;72.09
32298;BME280;18782;48.984;8.548;2022-11-20T11:58:56;99499.63;;;12.32;69.16
32298;BME280;18782;48.984;8.548;2022-11-20T12:01:32;99492.44;;;12.04;71.69
32298;BME280;18782;48.984;8.548;2022-11-20T12:04:05;99509.81;;;11.53;70.25
32298;BME280;18782;48.984;8.548;2022-11-20T12:06:43;99512.78;;;11.21;70.46
32298;BME280;18782;48.984;8.548;2022-11-20T12:09:12;99484.38;;;11.15;70.56
32298;BME280;18782;48.984;8.548;2022-11-20T12:11:44;99489.94;;;11.44;68.26
32298;BME280;18782;48.984;8.548;2022-11-20T12:14:16;99497.25;;;11.77;67.59
32298;BME280;18782;48.984;8.548;2022-11-20T12:16:51;99485.88;;;11.01;69.95
32298;BME280;18782;48.984;8.548;2022-11-20T12:19:21;99486.88;;;11.11;70.57
32298;BME280;18782;48.984;8.548;2022-11-20T12:21:55;99488.78;;;11.22;70.25
32298;BME280;18782;48.984;8.548;2022-11-20T12:24:39;99489.97;;;11.46;69.57
32298;BME280;18782;48.984;8.548;2022-11-20T12:27:42;99492.19;;;11.21;70.16
32298;BME280;18782;48.984;8.548;2022-11-20T12:30:14;99483.28;;;11.60;68.31
32298;BME280;18782;48.984;8.548;2022-11-20T12:32:55;99496.53;;;11.88;67.42
32298;BME280;18782;48.984;8.548;2022-11-20T12:35:37;99491.63;;;12.09;65.47
32298;BME280;18782;48.984;8.548;2022-11-20T12:41:06;99487.69;;;12.43;65.49
32298;BME280;18782;48.984;8.548;2022-11-20T12:43:45;99482.09;;;12.96;63.01
32298;BME280;18782;48.984;8.548;2022-11-20T12:46:36;99499.56;;;13.23;60.90
32298;BME280;18782;48.984;8.548;2022-11-20T12:49:22;99489.00;;;12.96;60.80
32298;BME280;18782;48.984;8.548;2022-11-20T12:52:00;99485.91;;;13.49;62.96
32298;BME280;18782;48.984;8.548;2022-11-20T12:54:52;99479.59;;;13.10;61.79
32298;BME280;18782;48.984;8.548;2022-11-20T12:57:28;99479.22;;;12.58;59.29
32298;BME280;18782;48.984;8.548;2022-11-20T13:00:07;99489.59;;;12.64;58.45
32298;BME280;18782;48.984;8.548;2022-11-20T13:02:56;99497.72;;;12.16;57.54
32298;BME280;18782;48.984;8.548;2022-11-20T13:05:31;99492.72;;;11.01;58.82
32298;BME280;18782;48.984;8.548;2022-11-20T13:08:08;99479.28;;;11.20;59.57
32298;BME280;18782;48.984;8.548;2022-11-20T13:10:44;99475.22;;;11.36;59.78
32298;BME280;18782;48.984;8.548;2022-11-20T13:13:16;99475.75;;;11.77;58.70
32298;BME280;18782;48.984;8.548;2022-11-20T13:15:50;99466.63;;;12.02;56.47
32298;BME280;18782;48.984;8.548;2022-11-20T13:18:21;99473.16;;;12.53;56.47
32298;BME280;18782;48.984;8.548;2022-11-20T13:20:50;99460.72;;;12.15;55.37
32298;BME280;18782;48.984;8.548;2022-11-20T13:23:25;99455.88;;;12.46;54.81
32298;BME280;18782;48.984;8.548;2022-11-20T13:26:04;99465.88;;;12.12;57.05
32298;BME280;18782;48.984;8.548;2022-11-20T13:28:32;99459.00;;;12.14;55.42
32298;BME280;18782;48.984;8.548;2022-11-20T13:31:00;99475.44;;;12.22;54.48
32298;BME280;18782;48.984;8.548;2022-11-20T13:33:30;99453.19;;;12.37;53.10